Astin, Texas
Current Conditions -  °F | °C
As of 2:15 PM on Friday 31 Oct 2014 (Local Time) from KLHB Reporting Station
Clear Clear  
Wind Chill: 72°   Ceiling: Unl
Heat Index: 72°   Visibility: 10mi
Dew Point: 43°   Wind: 17mph
Humidity: 36%   Direction: 330°NNW
Pressure: 30.25"   Gusts: 21mph
Location:  30.8324°N, 96.5749°W
Report Text: KLHB 311915Z AUTO 33015G18KT 10SM CLR 22/06 A3025 RMK AO2 T02220063
Loading
Personal Weather Stations






























Interactive Weather Map
Tropical Storm Tracking
New forecast layout! Learn more

10-Day Weather Forecast

Advertisements
Track Severe Weather on mobile